sensor_id;sensor_type;location;lat;lon;timestamp;temperature;humidity
45837;DHT22;31548;51.420;-0.040;2022-10-31T00:01:34;12.00;99.90
45837;DHT22;31548;51.420;-0.040;2022-10-31T00:04:03;12.00;99.90
45837;DHT22;31548;51.420;-0.040;2022-10-31T00:06:31;12.10;99.90
45837;DHT22;31548;51.420;-0.040;2022-10-31T00:09:02;12.10;99.90
45837;DHT22;31548;51.420;-0.040;2022-10-31T00:11:30;12.20;99.90
45837;DHT22;31548;51.420;-0.040;2022-10-31T00:13:59;12.10;99.90
45837;DHT22;31548;51.420;-0.040;2022-10-31T00:16:28;12.20;99.90
45837;DHT22;31548;51.420;-0.040;2022-10-31T00:18:58;12.20;99.90
45837;DHT22;31548;51.420;-0.040;2022-10-31T00:21:26;12.20;99.90
45837;DHT22;31548;51.420;-0.040;2022-10-31T00:23:54;12.20;99.90
45837;DHT22;31548;51.420;-0.040;2022-10-31T00:26:22;12.20;99.90
45837;DHT22;31548;51.420;-0.040;2022-10-31T00:28:50;12.20;99.90
45837;DHT22;31548;51.420;-0.040;2022-10-31T00:31:18;12.20;99.90
45837;DHT22;31548;51.420;-0.040;2022-10-31T00:33:46;12.20;99.90
45837;DHT22;31548;51.420;-0.040;2022-10-31T00:36:18;12.20;99.90
45837;DHT22;31548;51.420;-0.040;2022-10-31T00:38:47;12.20;99.90
45837;DHT22;31548;51.420;-0.040;2022-10-31T00:41:16;12.10;99.90
45837;DHT22;31548;51.420;-0.040;2022-10-31T00:43:45;12.10;99.90
45837;DHT22;31548;51.420;-0.040;2022-10-31T00:46:13;12.10;99.90
45837;DHT22;31548;51.420;-0.040;2022-10-31T00:48:42;12.10;99.90
45837;DHT22;31548;51.420;-0.040;2022-10-31T00:51:10;12.00;99.90
45837;DHT22;31548;51.420;-0.040;2022-10-31T00:53:40;12.10;99.90
45837;DHT22;31548;51.420;-0.040;2022-10-31T00:56:08;12.00;99.90
45837;DHT22;31548;51.420;-0.040;2022-10-31T00:58:36;12.00;99.90
45837;DHT22;31548;51.420;-0.040;2022-10-31T01:01:04;12.00;99.90
45837;DHT22;31548;51.420;-0.040;2022-10-31T01:03:34;11.90;99.90
45837;DHT22;31548;51.420;-0.040;2022-10-31T01:08:34;11.90;99.90
45837;DHT22;31548;51.420;-0.040;2022-10-31T01:11:11;11.90;99.90
45837;DHT22;31548;51.420;-0.040;2022-10-31T01:13:40;11.80;99.90
45837;DHT22;31548;51.420;-0.040;2022-10-31T01:16:12;11.80;99.90
45837;DHT22;31548;51.420;-0.040;2022-10-31T01:18:40;11.80;99.90
45837;DHT22;31548;51.420;-0.040;2022-10-31T01:21:14;11.80;99.90
45837;DHT22;31548;51.420;-0.040;2022-10-31T01:23:42;11.70;99.90
45837;DHT22;31548;51.420;-0.040;2022-10-31T01:26:21;11.70;99.90
45837;DHT22;31548;51.420;-0.040;2022-10-31T01:28:58;11.70;99.90
45837;DHT22;31548;51.420;-0.040;2022-10-31T01:31:33;11.70;99.90
45837;DHT22;31548;51.420;-0.040;2022-10-31T01:34:02;11.60;99.90
45837;DHT22;31548;51.420;-0.040;2022-10-31T01:36:35;11.60;99.90
45837;DHT22;31548;51.420;-0.040;2022-10-31T01:39:06;11.60;99.90
45837;DHT22;31548;51.420;-0.040;2022-10-31T01:41:41;11.60;99.90
45837;DHT22;31548;51.420;-0.040;2022-10-31T01:46:56;11.60;99.90
45837;DHT22;31548;51.420;-0.040;2022-10-31T01:49:45;11.60;99.90
45837;DHT22;31548;51.420;-0.040;2022-10-31T01:52:23;11.60;99.90
45837;DHT22;31548;51.420;-0.040;2022-10-31T01:54:58;11.60;99.90
45837;DHT22;31548;51.420;-0.040;2022-10-31T01:57:27;11.60;99.90
45837;DHT22;31548;51.420;-0.040;2022-10-31T02:00:00;11.60;99.90
45837;DHT22;31548;51.420;-0.040;2022-10-31T02:02:40;11.60;99.90
45837;DHT22;31548;51.420;-0.040;2022-10-31T02:05:12;11.60;99.90
45837;DHT22;31548;51.420;-0.040;2022-10-31T02:10:32;11.60;99.90
45837;DHT22;31548;51.420;-0.040;2022-10-31T02:13:03;11.50;99.90
45837;DHT22;31548;51.420;-0.040;2022-10-31T02:15:32;11.60;99.90
45837;DHT22;31548;51.420;-0.040;2022-10-31T02:18:00;11.50;99.90
45837;DHT22;31548;51.420;-0.040;2022-10-31T02:23:33;11.50;99.90
45837;DHT22;31548;51.420;-0.040;2022-10-31T02:29:38;11.50;99.90
45837;DHT22;31548;51.420;-0.040;2022-10-31T02:43:15;11.40;99.90
45837;DHT22;31548;51.420;-0.040;2022-10-31T02:45:50;11.40;99.90
45837;DHT22;31548;51.420;-0.040;2022-10-31T02:48:26;11.40;99.90
45837;DHT22;31548;51.420;-0.040;2022-10-31T02:51:01;11.40;99.90
45837;DHT22;31548;51.420;-0.040;2022-10-31T02:53:34;11.40;99.90
45837;DHT22;31548;51.420;-0.040;2022-10-31T02:56:16;11.30;99.90
45837;DHT22;31548;51.420;-0.040;2022-10-31T03:01:33;11.30;99.90
45837;DHT22;31548;51.420;-0.040;2022-10-31T03:04:20;11.30;99.90
45837;DHT22;31548;51.420;-0.040;2022-10-31T03:10:05;11.30;99.90
45837;DHT22;31548;51.420;-0.040;2022-10-31T03:12:43;11.30;99.90
45837;DHT22;31548;51.420;-0.040;2022-10-31T03:15:25;11.30;99.90
45837;DHT22;31548;51.420;-0.040;2022-10-31T03:18:42;11.30;99.90
45837;DHT22;31548;51.420;-0.040;2022-10-31T03:24:06;11.20;99.90
45837;DHT22;31548;51.420;-0.040;2022-10-31T03:26:41;11.20;99.90
45837;DHT22;31548;51.420;-0.040;2022-10-31T03:29:15;11.30;99.90
45837;DHT22;31548;51.420;-0.040;2022-10-31T03:32:01;11.20;99.90
45837;DHT22;31548;51.420;-0.040;2022-10-31T03:34:31;11.20;99.90
45837;DHT22;31548;51.420;-0.040;2022-10-31T03:37:02;11.20;99.90
45837;DHT22;31548;51.420;-0.040;2022-10-31T03:39:33;11.20;99.90
45837;DHT22;31548;51.420;-0.040;2022-10-31T03:42:10;11.20;99.90
45837;DHT22;31548;51.420;-0.040;2022-10-31T03:44:42;11.20;99.90
45837;DHT22;31548;51.420;-0.040;2022-10-31T03:47:12;11.20;99.90
45837;DHT22;31548;51.420;-0.040;2022-10-31T03:49:40;11.20;99.90
45837;DHT22;31548;51.420;-0.040;2022-10-31T03:54:48;11.10;99.90
45837;DHT22;31548;51.420;-0.040;2022-10-31T04:00:11;11.10;99.90
45837;DHT22;31548;51.420;-0.040;2022-10-31T04:05:25;11.10;99.90
45837;DHT22;31548;51.420;-0.040;2022-10-31T04:07:59;11.00;99.90
45837;DHT22;31548;51.420;-0.040;2022-10-31T04:10:31;11.00;99.90
45837;DHT22;31548;51.420;-0.040;2022-10-31T04:13:04;11.00;99.90
45837;DHT22;31548;51.420;-0.040;2022-10-31T04:15:41;11.00;99.90
45837;DHT22;31548;51.420;-0.040;2022-10-31T04:18:10;11.00;99.90
45837;DHT22;31548;51.420;-0.040;2022-10-31T04:20:41;10.90;99.90
45837;DHT22;31548;51.420;-0.040;2022-10-31T04:23:27;11.00;99.90
45837;DHT22;31548;51.420;-0.040;2022-10-31T04:25:56;10.90;99.90
45837;DHT22;31548;51.420;-0.040;2022-10-31T04:28:24;11.00;99.90
45837;DHT22;31548;51.420;-0.040;2022-10-31T04:30:53;11.00;99.90
45837;DHT22;31548;51.420;-0.040;2022-10-31T04:33:22;11.00;99.90
45837;DHT22;31548;51.420;-0.040;2022-10-31T04:35:50;11.00;99.90
45837;DHT22;31548;51.420;-0.040;2022-10-31T04:38:18;11.00;99.90
45837;DHT22;31548;51.420;-0.040;2022-10-31T04:40:48;11.00;99.90
45837;DHT22;31548;51.420;-0.040;2022-10-31T04:43:35;11.00;99.90
45837;DHT22;31548;51.420;-0.040;2022-10-31T04:46:03;11.00;99.90
45837;DHT22;31548;51.420;-0.040;2022-10-31T04:48:31;10.90;99.90
45837;DHT22;31548;51.420;-0.040;2022-10-31T04:51:02;10.90;99.90
45837;DHT22;31548;51.420;-0.040;2022-10-31T04:53:32;10.90;99.90
45837;DHT22;31548;51.420;-0.040;2022-10-31T04:56:20;11.00;99.90
45837;DHT22;31548;51.420;-0.040;2022-10-31T04:58:53;10.90;99.90
45837;DHT22;31548;51.420;-0.040;2022-10-31T05:01:22;10.90;99.90
45837;DHT22;31548;51.420;-0.040;2022-10-31T05:03:50;10.90;99.90
45837;DHT22;31548;51.420;-0.040;2022-10-31T05:06:18;10.90;99.90
45837;DHT22;31548;51.420;-0.040;2022-10-31T05:08:46;10.90;99.90
45837;DHT22;31548;51.420;-0.040;2022-10-31T05:11:14;10.90;99.90
45837;DHT22;31548;51.420;-0.040;2022-10-31T05:13:44;10.90;99.90
45837;DHT22;31548;51.420;-0.040;2022-10-31T05:16:12;10.90;99.90
45837;DHT22;31548;51.420;-0.040;2022-10-31T05:18:40;10.90;99.90
45837;DHT22;31548;51.420;-0.040;2022-10-31T05:21:26;10.90;99.90
45837;DHT22;31548;51.420;-0.040;2022-10-31T05:23:59;11.00;99.90
45837;DHT22;31548;51.420;-0.040;2022-10-31T05:26:28;11.00;99.90
45837;DHT22;31548;51.420;-0.040;2022-10-31T05:28:56;11.00;99.90
45837;DHT22;31548;51.420;-0.040;2022-10-31T05:31:24;10.90;99.90
45837;DHT22;31548;51.420;-0.040;2022-10-31T05:33:53;10.90;99.90
45837;DHT22;31548;51.420;-0.040;2022-10-31T05:36:40;10.90;99.90
45837;DHT22;31548;51.420;-0.040;2022-10-31T05:39:16;10.90;99.90
45837;DHT22;31548;51.420;-0.040;2022-10-31T05:41:49;10.90;99.90
45837;DHT22;31548;51.420;-0.040;2022-10-31T05:44:25;10.80;99.90
45837;DHT22;31548;51.420;-0.040;2022-10-31T05:47:12;10.80;99.90
45837;DHT22;31548;51.420;-0.040;2022-10-31T05:49:59;10.80;99.90
45837;DHT22;31548;51.420;-0.040;2022-10-31T05:53:04;10.80;99.90
45837;DHT22;31548;51.420;-0.040;2022-10-31T05:55:36;10.80;99.90
45837;DHT22;31548;51.420;-0.040;2022-10-31T05:58:10;10.80;99.90
45837;DHT22;31548;51.420;-0.040;2022-10-31T06:00:42;10.80;99.90
45837;DHT22;31548;51.420;-0.040;2022-10-31T06:03:11;10.70;99.90
45837;DHT22;31548;51.420;-0.040;2022-10-31T06:05:47;10.80;99.90
45837;DHT22;31548;51.420;-0.040;2022-10-31T06:08:23;10.80;99.90
45837;DHT22;31548;51.420;-0.040;2022-10-31T06:10:53;10.80;99.90
45837;DHT22;31548;51.420;-0.040;2022-10-31T06:13:41;10.70;99.90
45837;DHT22;31548;51.420;-0.040;2022-10-31T06:16:16;10.70;99.90
45837;DHT22;31548;51.420;-0.040;2022-10-31T06:18:46;10.70;99.90
45837;DHT22;31548;51.420;-0.040;2022-10-31T06:21:14;10.70;99.90
45837;DHT22;31548;51.420;-0.040;2022-10-31T06:23:48;10.70;99.90
45837;DHT22;31548;51.420;-0.040;2022-10-31T06:26:44;10.80;99.90
45837;DHT22;31548;51.420;-0.040;2022-10-31T06:29:13;10.70;99.90
45837;DHT22;31548;51.420;-0.040;2022-10-31T06:31:56;10.80;99.90
45837;DHT22;31548;51.420;-0.040;2022-10-31T06:34:24;10.80;99.90
45837;DHT22;31548;51.420;-0.040;2022-10-31T06:36:52;10.70;99.90
45837;DHT22;31548;51.420;-0.040;2022-10-31T06:39:23;10.70;99.90
45837;DHT22;31548;51.420;-0.040;2022-10-31T06:41:52;10.70;99.90
45837;DHT22;31548;51.420;-0.040;2022-10-31T06:44:22;10.70;99.90
45837;DHT22;31548;51.420;-0.040;2022-10-31T06:46:59;10.70;99.90
45837;DHT22;31548;51.420;-0.040;2022-10-31T06:49:49;10.70;99.90
45837;DHT22;31548;51.420;-0.040;2022-10-31T06:52:21;10.70;99.90
45837;DHT22;31548;51.420;-0.040;2022-10-31T06:54:51;10.60;99.90
45837;DHT22;31548;51.420;-0.040;2022-10-31T06:57:20;10.70;99.90
45837;DHT22;31548;51.420;-0.040;2022-10-31T06:59:49;10.70;99.90
45837;DHT22;31548;51.420;-0.040;2022-10-31T07:02:21;10.60;99.90
45837;DHT22;31548;51.420;-0.040;2022-10-31T07:04:50;10.70;99.90
45837;DHT22;31548;51.420;-0.040;2022-10-31T07:07:18;10.60;99.90
45837;DHT22;31548;51.420;-0.040;2022-10-31T07:09:50;10.60;99.90
45837;DHT22;31548;51.420;-0.040;2022-10-31T07:12:23;10.60;99.90
45837;DHT22;31548;51.420;-0.040;2022-10-31T07:14:57;10.60;99.90
45837;DHT22;31548;51.420;-0.040;2022-10-31T07:17:25;10.60;99.90
45837;DHT22;31548;51.420;-0.040;2022-10-31T07:19:59;10.60;99.90
45837;DHT22;31548;51.420;-0.040;2022-10-31T07:22:35;10.60;99.90
45837;DHT22;31548;51.420;-0.040;2022-10-31T07:25:06;10.60;99.90
45837;DHT22;31548;51.420;-0.040;2022-10-31T07:27:52;10.60;99.90
45837;DHT22;31548;51.420;-0.040;2022-10-31T07:30:21;10.60;99.90
45837;DHT22;31548;51.420;-0.040;2022-10-31T07:32:53;10.60;99.90
45837;DHT22;31548;51.420;-0.040;2022-10-31T07:35:24;10.60;99.90
45837;DHT22;31548;51.420;-0.040;2022-10-31T07:37:56;10.60;99.90
45837;DHT22;31548;51.420;-0.040;2022-10-31T07:40:25;10.60;99.90
45837;DHT22;31548;51.420;-0.040;2022-10-31T07:42:53;10.70;99.90
45837;DHT22;31548;51.420;-0.040;2022-10-31T07:45:39;10.70;99.90
45837;DHT22;31548;51.420;-0.040;2022-10-31T07:48:33;10.70;99.90
45837;DHT22;31548;51.420;-0.040;2022-10-31T07:51:21;10.70;99.90
45837;DHT22;31548;51.420;-0.040;2022-10-31T07:54:07;10.70;99.90
45837;DHT22;31548;51.420;-0.040;2022-10-31T07:56:37;10.70;99.90
45837;DHT22;31548;51.420;-0.040;2022-10-31T07:59:05;10.80;99.90
45837;DHT22;31548;51.420;-0.040;2022-10-31T08:01:34;10.80;99.90
45837;DHT22;31548;51.420;-0.040;2022-10-31T08:04:20;10.80;99.90
45837;DHT22;31548;51.420;-0.040;2022-10-31T08:07:07;10.90;99.90
45837;DHT22;31548;51.420;-0.040;2022-10-31T08:09:37;10.90;99.90
45837;DHT22;31548;51.420;-0.040;2022-10-31T08:12:16;10.90;99.90
45837;DHT22;31548;51.420;-0.040;2022-10-31T08:14:44;11.00;99.90
45837;DHT22;31548;51.420;-0.040;2022-10-31T08:17:14;11.10;99.90
45837;DHT22;31548;51.420;-0.040;2022-10-31T08:19:53;11.20;99.90
45837;DHT22;31548;51.420;-0.040;2022-10-31T08:22:27;11.20;99.90
45837;DHT22;31548;51.420;-0.040;2022-10-31T08:24:54;11.20;99.90
45837;DHT22;31548;51.420;-0.040;2022-10-31T08:27:23;11.30;99.90
45837;DHT22;31548;51.420;-0.040;2022-10-31T08:29:51;11.40;99.90
45837;DHT22;31548;51.420;-0.040;2022-10-31T08:32:19;11.50;99.90
45837;DHT22;31548;51.420;-0.040;2022-10-31T08:35:05;11.50;99.90
45837;DHT22;31548;51.420;-0.040;2022-10-31T08:37:57;11.60;99.90
45837;DHT22;31548;51.420;-0.040;2022-10-31T08:40:28;11.70;99.90
45837;DHT22;31548;51.420;-0.040;2022-10-31T08:43:05;11.80;99.90
45837;DHT22;31548;51.420;-0.040;2022-10-31T08:45:34;11.80;99.90
45837;DHT22;31548;51.420;-0.040;2022-10-31T08:48:09;11.90;99.90
45837;DHT22;31548;51.420;-0.040;2022-10-31T08:50:37;12.00;99.90
45837;DHT22;31548;51.420;-0.040;2022-10-31T08:53:09;12.00;99.90
45837;DHT22;31548;51.420;-0.040;2022-10-31T08:55:40;12.10;99.90
45837;DHT22;31548;51.420;-0.040;2022-10-31T08:58:23;12.10;99.90
45837;DHT22;31548;51.420;-0.040;2022-10-31T09:00:55;12.20;99.90
45837;DHT22;31548;51.420;-0.040;2022-10-31T09:03:29;12.30;99.90
45837;DHT22;31548;51.420;-0.040;2022-10-31T09:06:01;12.40;99.90
45837;DHT22;31548;51.420;-0.040;2022-10-31T09:08:31;12.50;99.90
45837;DHT22;31548;51.420;-0.040;2022-10-31T09:11:01;12.50;99.90
45837;DHT22;31548;51.420;-0.040;2022-10-31T09:13:48;12.60;99.90
45837;DHT22;31548;51.420;-0.040;2022-10-31T09:16:15;12.70;99.90
45837;DHT22;31548;51.420;-0.040;2022-10-31T09:18:43;12.80;99.90
45837;DHT22;31548;51.420;-0.040;2022-10-31T09:21:15;12.80;99.90
45837;DHT22;31548;51.420;-0.040;2022-10-31T09:23:43;12.90;99.90
45837;DHT22;31548;51.420;-0.040;2022-10-31T09:26:11;13.00;99.90
45837;DHT22;31548;51.420;-0.040;2022-10-31T09:29:02;13.00;99.90
45837;DHT22;31548;51.420;-0.040;2022-10-31T09:31:31;13.10;99.90
45837;DHT22;31548;51.420;-0.040;2022-10-31T09:34:37;13.20;99.90
45837;DHT22;31548;51.420;-0.040;2022-10-31T09:37:08;13.20;99.90
45837;DHT22;31548;51.420;-0.040;2022-10-31T09:39:36;13.30;99.90
45837;DHT22;31548;51.420;-0.040;2022-10-31T09:42:33;13.30;99.90
45837;DHT22;31548;51.420;-0.040;2022-10-31T09:51:13;13.70;99.90
45837;DHT22;31548;51.420;-0.040;2022-10-31T09:54:36;13.90;99.90
45837;DHT22;31548;51.420;-0.040;2022-10-31T09:57:05;14.00;99.90
45837;DHT22;31548;51.420;-0.040;2022-10-31T09:59:40;14.10;99.90
45837;DHT22;31548;51.420;-0.040;2022-10-31T10:14:34;14.50;99.90
45837;DHT22;31548;51.420;-0.040;2022-10-31T10:17:21;14.50;99.90
45837;DHT22;31548;51.420;-0.040;2022-10-31T10:22:52;14.60;99.90
45837;DHT22;31548;51.420;-0.040;2022-10-31T10:25:29;14.70;99.90
45837;DHT22;31548;51.420;-0.040;2022-10-31T10:28:17;14.60;99.90
45837;DHT22;31548;51.420;-0.040;2022-10-31T10:33:58;14.80;99.90
45837;DHT22;31548;51.420;-0.040;2022-10-31T10:36:38;14.80;99.90
45837;DHT22;31548;51.420;-0.040;2022-10-31T10:39:17;14.90;99.90
45837;DHT22;31548;51.420;-0.040;2022-10-31T10:41:48;14.90;99.90
45837;DHT22;31548;51.420;-0.040;2022-10-31T10:44:39;14.90;99.90
45837;DHT22;31548;51.420;-0.040;2022-10-31T10:47:30;14.90;99.90
45837;DHT22;31548;51.420;-0.040;2022-10-31T10:50:19;15.00;99.90
45837;DHT22;31548;51.420;-0.040;2022-10-31T10:56:13;15.10;99.90
45837;DHT22;31548;51.420;-0.040;2022-10-31T10:58:43;15.20;99.90
45837;DHT22;31548;51.420;-0.040;2022-10-31T11:01:13;15.20;99.90
45837;DHT22;31548;51.420;-0.040;2022-10-31T11:03:46;15.30;99.90
45837;DHT22;31548;51.420;-0.040;2022-10-31T11:06:22;15.30;99.90
45837;DHT22;31548;51.420;-0.040;2022-10-31T11:08:53;15.40;99.90
45837;DHT22;31548;51.420;-0.040;2022-10-31T11:11:25;15.40;99.90
45837;DHT22;31548;51.420;-0.040;2022-10-31T11:14:13;15.50;99.90
45837;DHT22;31548;51.420;-0.040;2022-10-31T11:16:49;15.50;99.90
45837;DHT22;31548;51.420;-0.040;2022-10-31T11:19:25;15.50;99.90
45837;DHT22;31548;51.420;-0.040;2022-10-31T11:21:54;15.50;99.90
45837;DHT22;31548;51.420;-0.040;2022-10-31T11:24:38;15.50;99.90
45837;DHT22;31548;51.420;-0.040;2022-10-31T11:27:25;15.60;99.90
45837;DHT22;31548;51.420;-0.040;2022-10-31T11:30:04;15.60;99.90
45837;DHT22;31548;51.420;-0.040;2022-10-31T11:32:32;15.60;99.90
45837;DHT22;31548;51.420;-0.040;2022-10-31T11:35:02;15.70;99.90
45837;DHT22;31548;51.420;-0.040;2022-10-31T11:37:41;15.80;99.90
45837;DHT22;31548;51.420;-0.040;2022-10-31T11:40:19;15.80;99.90
45837;DHT22;31548;51.420;-0.040;2022-10-31T11:42:49;15.90;99.90
45837;DHT22;31548;51.420;-0.040;2022-10-31T11:45:28;16.00;99.90
45837;DHT22;31548;51.420;-0.040;2022-10-31T11:47:58;16.00;99.90
45837;DHT22;31548;51.420;-0.040;2022-10-31T11:50:40;16.00;99.90
45837;DHT22;31548;51.420;-0.040;2022-10-31T11:53:15;15.90;99.90
45837;DHT22;31548;51.420;-0.040;2022-10-31T11:55:45;15.90;99.90
45837;DHT22;31548;51.420;-0.040;2022-10-31T11:58:26;16.00;99.90
45837;DHT22;31548;51.420;-0.040;2022-10-31T12:00:55;16.00;99.90
45837;DHT22;31548;51.420;-0.040;2022-10-31T12:06:16;16.00;99.90
45837;DHT22;31548;51.420;-0.040;2022-10-31T12:08:46;16.10;99.90
45837;DHT22;31548;51.420;-0.040;2022-10-31T12:14:26;16.10;99.90
45837;DHT22;31548;51.420;-0.040;2022-10-31T12:17:13;16.10;99.90
45837;DHT22;31548;51.420;-0.040;2022-10-31T12:47:40;16.30;99.90
45837;DHT22;31548;51.420;-0.040;2022-10-31T12:53:17;16.40;99.90
45837;DHT22;31548;51.420;-0.040;2022-10-31T12:56:24;16.50;99.90
45837;DHT22;31548;51.420;-0.040;2022-10-31T13:01:51;16.60;99.90
45837;DHT22;31548;51.420;-0.040;2022-10-31T13:04:29;16.70;99.90
45837;DHT22;31548;51.420;-0.040;2022-10-31T13:07:05;16.70;99.90
45837;DHT22;31548;51.420;-0.040;2022-10-31T13:10:48;16.70;99.90
45837;DHT22;31548;51.420;-0.040;2022-10-31T13:12:53;16.80;99.90
45837;DHT22;31548;51.420;-0.040;2022-10-31T13:15:26;16.80;99.90
45837;DHT22;31548;51.420;-0.040;2022-10-31T13:17:57;16.90;99.90
45837;DHT22;31548;51.420;-0.040;2022-10-31T13:20:32;16.80;99.90
45837;DHT22;31548;51.420;-0.040;2022-10-31T13:23:10;16.80;99.90
45837;DHT22;31548;51.420;-0.040;2022-10-31T13:26:08;16.80;99.90
45837;DHT22;31548;51.420;-0.040;2022-10-31T13:29:05;16.70;99.90
45837;DHT22;31548;51.420;-0.040;2022-10-31T13:31:40;16.70;99.90
45837;DHT22;31548;51.420;-0.040;2022-10-31T13:34:29;16.70;99.90
45837;DHT22;31548;51.420;-0.040;2022-10-31T13:37:04;16.60;99.90
45837;DHT22;31548;51.420;-0.040;2022-10-31T13:43:11;16.60;99.90
45837;DHT22;31548;51.420;-0.040;2022-10-31T13:45:53;16.70;99.90
45837;DHT22;31548;51.420;-0.040;2022-10-31T13:48:38;16.80;99.90
45837;DHT22;31548;51.420;-0.040;2022-10-31T13:51:11;17.00;99.90
45837;DHT22;31548;51.420;-0.040;2022-10-31T13:56:29;17.20;99.90
45837;DHT22;31548;51.420;-0.040;2022-10-31T13:59:05;17.10;99.90
45837;DHT22;31548;51.420;-0.040;2022-10-31T14:01:53;17.00;99.90
45837;DHT22;31548;51.420;-0.040;2022-10-31T14:04:23;16.90;99.90
45837;DHT22;31548;51.420;-0.040;2022-10-31T14:07:09;16.80;99.90
45837;DHT22;31548;51.420;-0.040;2022-10-31T14:10:06;16.80;99.90
45837;DHT22;31548;51.420;-0.040;2022-10-31T14:12:41;16.70;99.90
45837;DHT22;31548;51.420;-0.040;2022-10-31T14:15:19;16.70;99.90
45837;DHT22;31548;51.420;-0.040;2022-10-31T14:18:01;16.60;99.90
45837;DHT22;31548;51.420;-0.040;2022-10-31T14:20:37;16.50;99.90
45837;DHT22;31548;51.420;-0.040;2022-10-31T14:26:17;16.40;99.90
45837;DHT22;31548;51.420;-0.040;2022-10-31T14:28:47;16.40;99.90
45837;DHT22;31548;51.420;-0.040;2022-10-31T14:31:35;16.40;99.90
45837;DHT22;31548;51.420;-0.040;2022-10-31T14:34:27;16.30;99.90
45837;DHT22;31548;51.420;-0.040;2022-10-31T14:36:59;16.20;99.90
45837;DHT22;31548;51.420;-0.040;2022-10-31T14:40:00;16.10;99.90
45837;DHT22;31548;51.420;-0.040;2022-10-31T14:53:21;15.90;99.90
45837;DHT22;31548;51.420;-0.040;2022-10-31T14:55:52;15.90;99.90
45837;DHT22;31548;51.420;-0.040;2022-10-31T14:58:35;15.90;99.90
45837;DHT22;31548;51.420;-0.040;2022-10-31T15:01:05;15.80;99.90
45837;DHT22;31548;51.420;-0.040;2022-10-31T15:03:39;15.70;99.90
45837;DHT22;31548;51.420;-0.040;2022-10-31T15:06:24;15.80;99.90
45837;DHT22;31548;51.420;-0.040;2022-10-31T15:08:54;15.70;99.90
45837;DHT22;31548;51.420;-0.040;2022-10-31T15:11:26;15.60;99.90
45837;DHT22;31548;51.420;-0.040;2022-10-31T15:13:56;15.70;99.90
45837;DHT22;31548;51.420;-0.040;2022-10-31T15:16:30;15.60;99.90
45837;DHT22;31548;51.420;-0.040;2022-10-31T15:19:05;15.60;99.90
45837;DHT22;31548;51.420;-0.040;2022-10-31T15:21:35;15.60;99.90
45837;DHT22;31548;51.420;-0.040;2022-10-31T15:24:04;15.60;99.90
45837;DHT22;31548;51.420;-0.040;2022-10-31T15:26:43;15.60;99.90
45837;DHT22;31548;51.420;-0.040;2022-10-31T15:29:16;15.60;99.90
45837;DHT22;31548;51.420;-0.040;2022-10-31T15:32:01;15.50;99.90
45837;DHT22;31548;51.420;-0.040;2022-10-31T15:37:00;15.50;99.90
45837;DHT22;31548;51.420;-0.040;2022-10-31T15:39:28;15.50;99.90
45837;DHT22;31548;51.420;-0.040;2022-10-31T15:41:59;15.50;99.90
45837;DHT22;31548;51.420;-0.040;2022-10-31T15:44:33;15.40;99.90
45837;DHT22;31548;51.420;-0.040;2022-10-31T15:47:03;15.40;99.90
45837;DHT22;31548;51.420;-0.040;2022-10-31T15:49:37;15.40;99.90
45837;DHT22;31548;51.420;-0.040;2022-10-31T15:55:05;15.40;99.90
45837;DHT22;31548;51.420;-0.040;2022-10-31T15:57:51;15.30;99.90
45837;DHT22;31548;51.420;-0.040;2022-10-31T16:00:25;15.30;99.90
45837;DHT22;31548;51.420;-0.040;2022-10-31T16:05:49;15.30;99.90
45837;DHT22;31548;51.420;-0.040;2022-10-31T16:11:15;15.20;99.90
45837;DHT22;31548;51.420;-0.040;2022-10-31T16:14:45;15.20;99.90
45837;DHT22;31548;51.420;-0.040;2022-10-31T16:16:56;15.20;99.90
45837;DHT22;31548;51.420;-0.040;2022-10-31T16:19:31;15.20;99.90
45837;DHT22;31548;51.420;-0.040;2022-10-31T16:22:09;15.20;99.90
45837;DHT22;31548;51.420;-0.040;2022-10-31T16:24:47;15.20;99.90
45837;DHT22;31548;51.420;-0.040;2022-10-31T16:27:28;15.10;99.90
45837;DHT22;31548;51.420;-0.040;2022-10-31T16:29:58;15.10;99.90
45837;DHT22;31548;51.420;-0.040;2022-10-31T16:32:34;15.10;99.90
45837;DHT22;31548;51.420;-0.040;2022-10-31T16:35:27;15.00;99.90
45837;DHT22;31548;51.420;-0.040;2022-10-31T16:37:55;15.00;99.90
45837;DHT22;31548;51.420;-0.040;2022-10-31T16:40:23;15.00;99.90
45837;DHT22;31548;51.420;-0.040;2022-10-31T16:42:51;15.00;99.90
45837;DHT22;31548;51.420;-0.040;2022-10-31T16:45:22;15.00;99.90
45837;DHT22;31548;51.420;-0.040;2022-10-31T16:47:50;15.00;99.90
45837;DHT22;31548;51.420;-0.040;2022-10-31T16:50:23;15.00;99.90
45837;DHT22;31548;51.420;-0.040;2022-10-31T16:52:51;15.00;99.90
45837;DHT22;31548;51.420;-0.040;2022-10-31T16:56:06;15.00;99.90
45837;DHT22;31548;51.420;-0.040;2022-10-31T16:58:39;15.00;99.90
45837;DHT22;31548;51.420;-0.040;2022-10-31T17:01:07;14.90;99.90
45837;DHT22;31548;51.420;-0.040;2022-10-31T17:03:35;14.90;99.90
45837;DHT22;31548;51.420;-0.040;2022-10-31T17:06:03;14.90;99.90
45837;DHT22;31548;51.420;-0.040;2022-10-31T17:08:31;14.90;99.90
45837;DHT22;31548;51.420;-0.040;2022-10-31T17:11:00;14.90;99.90
45837;DHT22;31548;51.420;-0.040;2022-10-31T17:13:30;14.90;99.90
45837;DHT22;31548;51.420;-0.040;2022-10-31T17:16:01;14.90;99.90
45837;DHT22;31548;51.420;-0.040;2022-10-31T17:18:29;14.90;99.90
45837;DHT22;31548;51.420;-0.040;2022-10-31T17:20:59;14.90;99.90
45837;DHT22;31548;51.420;-0.040;2022-10-31T17:23:27;14.90;99.90
45837;DHT22;31548;51.420;-0.040;2022-10-31T17:25:55;14.90;99.90
45837;DHT22;31548;51.420;-0.040;2022-10-31T17:28:23;14.90;99.90
45837;DHT22;31548;51.420;-0.040;2022-10-31T17:30:54;14.90;99.90
45837;DHT22;31548;51.420;-0.040;2022-10-31T17:33:22;14.90;99.90
45837;DHT22;31548;51.420;-0.040;2022-10-31T17:35:50;14.80;99.90
45837;DHT22;31548;51.420;-0.040;2022-10-31T17:38:18;14.90;99.90
45837;DHT22;31548;51.420;-0.040;2022-10-31T17:40:45;14.80;99.90
45837;DHT22;31548;51.420;-0.040;2022-10-31T17:43:14;14.80;99.90
45837;DHT22;31548;51.420;-0.040;2022-10-31T17:45:41;14.80;99.90
45837;DHT22;31548;51.420;-0.040;2022-10-31T17:48:10;14.80;99.90
45837;DHT22;31548;51.420;-0.040;2022-10-31T17:50:39;14.80;99.90
45837;DHT22;31548;51.420;-0.040;2022-10-31T17:53:06;14.80;99.90
45837;DHT22;31548;51.420;-0.040;2022-10-31T17:55:34;14.80;99.90
45837;DHT22;31548;51.420;-0.040;2022-10-31T17:58:04;14.70;99.90
45837;DHT22;31548;51.420;-0.040;2022-10-31T18:00:32;14.70;99.90
45837;DHT22;31548;51.420;-0.040;2022-10-31T18:03:01;14.70;99.90
45837;DHT22;31548;51.420;-0.040;2022-10-31T18:05:31;14.70;99.90
45837;DHT22;31548;51.420;-0.040;2022-10-31T18:07:59;14.70;99.90
45837;DHT22;31548;51.420;-0.040;2022-10-31T18:10:30;14.70;99.90
45837;DHT22;31548;51.420;-0.040;2022-10-31T18:12:58;14.70;99.90
45837;DHT22;31548;51.420;-0.040;2022-10-31T18:15:26;14.60;99.90
45837;DHT22;31548;51.420;-0.040;2022-10-31T18:17:54;14.60;99.90
45837;DHT22;31548;51.420;-0.040;2022-10-31T18:20:21;14.60;99.90
45837;DHT22;31548;51.420;-0.040;2022-10-31T18:22:49;14.50;99.90